Terminal Aerodrome Forecast
Issued by NWS

Home | Current Version | Previous Version | Text Only | Print | Product List | Glossary On
Versions: 1 2 3 4 5 6 7 8 9 10 11 12 13 14 15 16 17 18 19 20 21 22 23 24 25 26 27 28 29 30 31 32 33 34
000
FTAK31 PAFA 290529
TAFABT
TAF
PABT 290529Z 2906/3006 00000KT P6SM -RA BKN035 OVC050
     FM291600 VRB04KT 2SM -DZ BR SCT007 OVC015
     FM292100 27007KT P6SM OVC025
     FM300000 24007KT P6SM BKN050
     FM300300 24006KT P6SM BKN250=

USA.gov is the U.S. government's official web portal to all federal, state and local government web resources and services.